Mesilla Park, New Mexico
Current Conditions -  °F | °C
As of 7:35 AM on Friday 31 Oct 2014 (Local Time) from KLRU Reporting Station
Clear Clear  
Wind Chill: 55°   Ceiling: Unl
Heat Index: 55°   Visibility: 10mi
Dew Point: 44°   Wind: 9mph
Humidity: 65%   Direction: 120°ESE
Pressure: 30.31"   Gusts: NA
Location:  32.28°N, 106.77°W
Report Text: KLRU 311335Z AUTO 12008KT 10SM CLR 13/07 A3031 RMK AO2 T01300066 PWINO
Loading
Personal Weather Stations






























Interactive Weather Map
Tropical Storm Tracking
New forecast layout! Learn more

10-Day Weather Forecast

Advertisements
Track Severe Weather on mobile